Time;durP1;ratioP1;P1;durP2;ratioP2;P2;SDS_P1;SDS_P2;PMS_P1;PMS_P2;Temp;Humidity;BMP_temperature;BMP_pressure;BME280_temperature;BME280_humidity;BME280_pressure;Samples;Min_cycle;Max_cycle;Signal;HPM_P1;HPM_P2
2021/11/01 00:01:49;;;;;;;13.27;2.80;;;;;;;11.96;74.46;99725.03;4992829;28;21187;-55
2021/11/01 00:04:14;;;;;;;13.52;2.35;;;;;;;11.96;74.14;99719.78;4991684;28;20232;-57
2021/11/01 00:06:39;;;;;;;15.38;2.65;;;;;;;11.90;74.33;99726.81;4998057;28;20039;-54
2021/11/01 00:09:05;;;;;;;16.15;2.75;;;;;;;11.90;74.52;99725.09;4995076;28;20411;-57
2021/11/01 00:11:31;;;;;;;13.38;2.45;;;;;;;11.86;74.81;99723.41;4980817;28;20202;-56
2021/11/01 00:13:56;;;;;;;15.02;2.30;;;;;;;11.96;74.78;99729.38;4996682;28;20443;-56
2021/11/01 00:16:22;;;;;;;13.43;2.35;;;;;;;11.94;74.25;99732.03;4995011;28;20558;-56
2021/11/01 00:18:48;;;;;;;16.95;2.55;;;;;;;11.98;74.48;99722.41;4991002;28;20573;-57
2021/11/01 00:21:14;;;;;;;18.33;2.60;;;;;;;11.99;74.55;99718.91;4996535;28;20033;-56
2021/11/01 00:23:40;;;;;;;16.90;2.50;;;;;;;11.99;74.19;99718.91;4989011;28;20048;-56
2021/11/01 00:26:05;;;;;;;19.48;2.50;;;;;;;11.93;74.15;99719.84;4993896;28;20072;-59
2021/11/01 00:28:31;;;;;;;14.98;2.28;;;;;;;11.81;74.34;99719.09;4996384;28;20521;-55
2021/11/01 00:30:56;;;;;;;16.80;2.40;;;;;;;11.85;74.17;99726.88;4998076;28;20053;-56
2021/11/01 00:33:24;;;;;;;15.23;2.50;;;;;;;11.79;74.37;99721.72;4995136;28;20048;-56
2021/11/01 00:35:49;;;;;;;16.02;2.30;;;;;;;11.83;74.12;99725.19;4997217;28;20573;-57
2021/11/01 00:38:15;;;;;;;10.73;2.03;;;;;;;11.79;74.12;99724.34;4999353;28;20045;-56
2021/11/01 00:40:41;;;;;;;16.15;2.33;;;;;;;11.75;74.10;99720.03;5003259;28;20356;-56
2021/11/01 00:43:06;;;;;;;16.13;2.28;;;;;;;11.71;74.13;99723.53;5003416;28;20493;-57
2021/11/01 00:45:32;;;;;;;16.58;2.42;;;;;;;11.60;74.99;99721.00;4992310;28;20533;-58
2021/11/01 00:47:58;;;;;;;13.77;2.38;;;;;;;11.65;74.44;99715.72;4996679;28;20054;-57
2021/11/01 00:50:24;;;;;;;11.35;1.85;;;;;;;11.59;74.71;99708.81;5002325;28;20057;-57
2021/11/01 00:52:50;;;;;;;10.77;2.40;;;;;;;11.57;74.60;99714.94;4996629;28;20689;-57
2021/11/01 00:55:23;;;;;;;11.70;2.33;;;;;;;11.53;74.29;99711.47;5000528;28;20564;-56
2021/11/01 00:57:50;;;;;;;16.77;2.28;;;;;;;11.44;74.37;99702.88;4996618;28;20058;-56
2021/11/01 01:00:16;;;;;;;9.32;1.90;;;;;;;11.40;74.66;99707.28;4999097;28;20510;-57
2021/11/01 01:02:43;;;;;;;11.65;2.03;;;;;;;11.52;74.05;99703.69;5028346;28;20106;-54
2021/11/01 01:05:08;;;;;;;12.52;1.70;;;;;;;11.52;74.28;99704.56;4995550;28;20038;-57
2021/11/01 01:07:34;;;;;;;12.43;2.10;;;;;;;11.61;74.38;99706.19;4992897;28;20121;-58
2021/11/01 01:09:59;;;;;;;12.63;1.92;;;;;;;11.63;74.24;99699.22;5029438;28;22111;-56
2021/11/01 01:12:25;;;;;;;13.35;1.83;;;;;;;11.63;74.06;99697.50;5007366;28;20428;-57
2021/11/01 01:14:56;;;;;;;10.18;1.85;;;;;;;11.67;73.65;99693.09;4998397;28;20100;-58
2021/11/01 01:17:24;;;;;;;13.90;2.03;;;;;;;11.64;73.16;99691.41;5001316;28;20473;-58
2021/11/01 01:19:58;;;;;;;12.45;1.85;;;;;;;11.63;73.00;99687.06;4995574;28;20104;-59
2021/11/01 01:22:29;;;;;;;15.27;2.25;;;;;;;11.57;73.44;99689.72;4999563;28;20139;-57
2021/11/01 01:25:14;;;;;;;11.85;1.90;;;;;;;11.54;73.26;99683.66;5002250;28;20037;-56
2021/11/01 01:27:40;;;;;;;8.45;1.92;;;;;;;11.49;73.00;99681.09;4988693;28;20077;-56
2021/11/01 01:30:06;;;;;;;12.13;1.88;;;;;;;11.46;73.47;99677.66;5000897;28;20091;-56
2021/11/01 01:32:32;;;;;;;17.95;2.03;;;;;;;11.45;73.03;99674.16;5000113;28;20071;-57
2021/11/01 01:34:57;;;;;;;14.75;2.10;;;;;;;11.34;73.94;99665.59;5000624;28;20038;-56
2021/11/01 01:37:23;;;;;;;13.07;1.70;;;;;;;11.44;73.27;99669.81;5001970;28;20049;-55
2021/11/01 01:39:48;;;;;;;8.68;1.80;;;;;;;11.43;73.32;99664.63;4995051;28;21254;-59
2021/11/01 01:42:14;;;;;;;10.63;1.73;;;;;;;11.42;73.05;99661.13;5003009;28;20049;-57
2021/11/01 01:44:39;;;;;;;11.55;1.95;;;;;;;11.36;73.41;99656.84;5027479;28;20111;-57
2021/11/01 01:47:06;;;;;;;11.68;2.00;;;;;;;11.40;73.08;99649.88;4993051;28;20049;-56
2021/11/01 01:49:32;;;;;;;12.68;1.90;;;;;;;11.34;73.07;99655.16;4993468;28;20286;-57
2021/11/01 01:51:57;;;;;;;7.32;1.70;;;;;;;11.39;73.04;99655.97;4995994;28;20103;-58
2021/11/01 01:54:23;;;;;;;10.82;1.70;;;;;;;11.38;73.11;99654.22;4995516;28;20046;-58
2021/11/01 01:56:48;;;;;;;13.10;1.70;;;;;;;11.40;72.85;99655.09;4993787;28;20490;-56
2021/11/01 01:59:17;;;;;;;10.32;2.08;;;;;;;11.24;73.53;99650.88;4998652;28;20133;-57
2021/11/01 02:01:43;;;;;;;9.32;1.63;;;;;;;11.33;73.16;99645.59;4990385;28;20038;-57
2021/11/01 02:04:09;;;;;;;10.77;1.90;;;;;;;11.33;72.85;99645.59;4999950;28;20103;-57
2021/11/01 02:06:47;;;;;;;13.85;1.85;;;;;;;11.32;72.50;99644.72;4999949;28;20600;-56
2021/11/01 02:09:19;;;;;;;8.93;1.70;;;;;;;11.31;72.70;99647.34;4995731;28;20397;-56
2021/11/01 02:11:54;;;;;;;8.90;1.73;;;;;;;11.30;72.81;99646.47;4987641;28;20085;-59
2021/11/01 02:14:24;;;;;;;12.10;1.90;;;;;;;11.35;72.83;99656.84;5000580;28;20482;-56
2021/11/01 02:16:50;;;;;;;10.30;1.63;;;;;;;11.29;72.82;99649.06;4975636;28;20053;-58
2021/11/01 02:19:18;;;;;;;14.07;1.80;;;;;;;11.31;72.97;99648.19;5016061;28;20327;-57
2021/11/01 02:21:54;;;;;;;9.73;1.83;;;;;;;11.39;72.72;99648.13;4987192;28;20045;-55
2021/11/01 02:24:42;;;;;;;9.30;1.67;;;;;;;11.41;72.34;99656.78;4997488;28;20508;-57
2021/11/01 02:27:11;;;;;;;9.52;1.83;;;;;;;11.34;72.95;99665.59;4998489;28;20045;-57
2021/11/01 02:29:37;;;;;;;15.43;2.42;;;;;;;11.33;72.64;99656.88;4992860;28;20650;-57
2021/11/01 02:32:03;;;;;;;8.77;1.90;;;;;;;11.39;72.66;99656.84;4993745;28;20132;-57
2021/11/01 02:34:29;;;;;;;10.20;1.80;;;;;;;11.33;72.96;99663.84;5000046;28;20064;-57
2021/11/01 02:36:54;;;;;;;10.48;1.80;;;;;;;11.39;72.79;99664.66;4999494;28;20132;-56
2021/11/01 02:39:20;;;;;;;7.97;1.50;;;;;;;11.35;73.00;99659.47;4996130;28;20041;-58
2021/11/01 02:41:46;;;;;;;10.27;1.80;;;;;;;11.44;72.37;99658.53;4992906;28;20108;-56
2021/11/01 02:44:11;;;;;;;8.45;2.15;;;;;;;11.41;72.94;99667.22;4997484;28;20270;-56
2021/11/01 02:46:38;;;;;;;8.13;1.60;;;;;;;11.44;72.41;99650.69;4994007;28;20046;-58
2021/11/01 02:49:05;;;;;;;6.43;1.40;;;;;;;11.56;72.14;99655.78;4998385;28;20487;-57
2021/11/01 02:51:31;;;;;;;8.40;1.70;;;;;;;11.66;72.17;99655.69;4992050;28;20494;-59
2021/11/01 02:53:58;;;;;;;8.77;1.30;;;;;;;11.82;71.23;99658.16;4990572;28;20049;-58
2021/11/01 02:56:24;;;;;;;16.33;1.60;;;;;;;11.78;70.65;99655.56;5000920;28;20045;-57
2021/11/01 02:58:50;;;;;;;11.80;1.73;;;;;;;11.95;69.63;99654.53;4996034;28;20057;-58
2021/11/01 03:01:18;;;;;;;7.80;1.80;;;;;;;12.01;69.85;99663.19;5014326;28;20524;-58
2021/11/01 03:03:43;;;;;;;11.07;1.73;;;;;;;11.94;70.17;99671.97;4992079;28;20144;-58
2021/11/01 03:06:10;;;;;;;7.82;1.60;;;;;;;12.03;69.70;99657.91;4989629;28;20050;-57
2021/11/01 03:08:37;;;;;;;6.80;1.70;;;;;;;12.06;69.73;99668.34;4999004;28;20088;-58
2021/11/01 03:11:05;;;;;;;9.35;1.60;;;;;;;12.05;69.37;99662.25;5025914;28;20057;-60
2021/11/01 03:13:32;;;;;;;10.20;1.67;;;;;;;11.99;69.42;99662.31;4990686;28;20057;-57
2021/11/01 03:15:58;;;;;;;6.38;1.73;;;;;;;11.97;69.30;99671.03;4995850;28;20280;-58
2021/11/01 03:18:29;;;;;;;9.63;1.65;;;;;;;11.80;70.09;99663.41;4993403;28;20037;-58
2021/11/01 03:20:56;;;;;;;12.27;1.70;;;;;;;11.69;70.37;99673.06;5010292;28;20053;-58
2021/11/01 03:23:26;;;;;;;6.68;1.60;;;;;;;11.73;70.13;99673.03;4998803;28;20052;-57
2021/11/01 03:26:03;;;;;;;9.25;1.50;;;;;;;11.69;70.52;99675.69;5020822;28;20103;-57
2021/11/01 03:28:30;;;;;;;10.82;1.60;;;;;;;11.73;70.65;99669.53;4999192;28;20056;-56
2021/11/01 03:30:57;;;;;;;9.25;1.80;;;;;;;11.75;70.00;99653.00;5025750;28;20075;-56
2021/11/01 03:33:23;;;;;;;10.05;1.42;;;;;;;11.79;69.51;99654.69;4992341;28;20109;-56
2021/11/01 03:35:49;;;;;;;7.38;1.50;;;;;;;11.74;70.05;99656.50;4991853;28;21108;-56
2021/11/01 03:38:15;;;;;;;6.07;1.55;;;;;;;11.72;70.07;99647.78;4992274;28;20144;-58
2021/11/01 03:40:43;;;;;;;9.77;1.60;;;;;;;11.69;70.36;99641.75;4996853;28;20099;-60
2021/11/01 03:43:09;;;;;;;8.65;1.80;;;;;;;11.61;70.85;99656.59;4998781;28;20576;-57
2021/11/01 03:45:36;;;;;;;7.30;1.65;;;;;;;11.67;71.22;99646.97;4970788;28;20073;-57
2021/11/01 03:48:05;;;;;;;17.23;1.98;;;;;;;11.73;70.72;99648.66;4997397;28;20479;-56
2021/11/01 03:50:58;;;;;;;14.13;1.88;;;;;;;11.75;70.89;99657.38;4990784;28;20049;-59
2021/11/01 03:53:19;;;;;;;8.00;1.70;;;;;;;11.73;70.60;99646.03;4994362;28;20065;-57
2021/11/01 03:55:44;;;;;;;8.75;1.60;;;;;;;11.66;70.79;99639.16;4986991;28;21141;-56
2021/11/01 03:58:10;;;;;;;8.55;2.00;;;;;;;11.60;71.05;99641.81;5026543;28;20038;-56
2021/11/01 04:00:36;;;;;;;9.90;2.03;;;;;;;11.50;71.89;99648.03;4994933;28;20540;-55
2021/11/01 04:03:02;;;;;;;9.65;2.10;;;;;;;11.45;72.10;99645.47;4990826;28;20038;-55
2021/11/01 04:05:28;;;;;;;9.98;2.35;;;;;;;11.32;73.20;99644.72;4986388;28;20064;-58
2021/11/01 04:07:54;;;;;;;7.43;2.03;;;;;;;11.42;72.51;99655.06;4995615;28;20042;-56
2021/11/01 04:10:20;;;;;;;12.38;2.10;;;;;;;11.36;72.83;99653.38;4994351;28;20065;-56
2021/11/01 04:12:46;;;;;;;15.57;2.50;;;;;;;11.43;72.58;99647.22;4992109;28;20573;-57
2021/11/01 04:15:17;;;;;;;8.80;2.00;;;;;;;11.45;72.39;99648.06;4986360;28;20486;-57
2021/11/01 04:17:47;;;;;;;8.48;2.08;;;;;;;11.47;72.32;99638.47;4986495;28;20757;-57
2021/11/01 04:20:28;;;;;;;12.98;2.08;;;;;;;11.46;72.53;99641.13;4994422;28;20776;-57
2021/11/01 04:23:01;;;;;;;8.27;2.10;;;;;;;11.60;72.76;99639.22;4997128;28;20124;-56
2021/11/01 04:25:27;;;;;;;11.40;3.03;;;;;;;11.69;72.82;99640.00;4996373;28;20270;-56
2021/11/01 04:27:54;;;;;;;10.90;1.90;;;;;;;11.65;72.00;99633.06;4996713;28;20091;-56
2021/11/01 04:30:20;;;;;;;13.23;2.55;;;;;;;11.69;72.03;99620.84;4995878;28;20050;-57
2021/11/01 04:32:50;;;;;;;11.45;2.20;;;;;;;11.79;72.03;99636.41;4995053;28;20041;-58
2021/11/01 04:35:25;;;;;;;9.05;2.00;;;;;;;11.77;71.88;99632.94;4994942;28;20038;-56
2021/11/01 04:37:58;;;;;;;10.05;1.90;;;;;;;11.73;71.72;99641.72;4989503;28;20360;-57
2021/11/01 04:40:54;;;;;;;10.00;1.98;;;;;;;11.80;71.05;99652.97;4993712;28;20417;-54
2021/11/01 04:43:42;;;;;;;10.25;2.28;;;;;;;11.75;70.90;99644.31;4998349;28;20049;-56
2021/11/01 04:54:17;;;;;;;12.23;1.80;;;;;;;11.74;71.84;99656.50;4998484;28;20144;-55
2021/11/01 04:56:43;;;;;;;11.38;2.20;;;;;;;11.67;71.62;99666.97;4998159;28;20042;-56
2021/11/01 04:59:09;;;;;;;12.43;1.98;;;;;;;11.80;71.90;99663.41;4998254;28;20366;-56
2021/11/01 05:01:40;;;;;;;12.07;1.95;;;;;;;11.90;71.29;99651.09;4986583;28;20045;-57
2021/11/01 05:04:07;;;;;;;11.38;2.00;;;;;;;11.79;71.26;99649.47;5001068;28;20441;-56
2021/11/01 05:06:42;;;;;;;7.95;1.77;;;;;;;11.88;71.36;99651.13;4998682;28;20197;-58
2021/11/01 05:09:12;;;;;;;10.55;2.08;;;;;;;11.71;71.48;99653.88;4995072;28;20127;-57
2021/11/01 05:11:44;;;;;;;10.65;2.10;;;;;;;11.54;72.12;99658.41;4992901;28;20540;-57
2021/11/01 05:14:13;;;;;;;12.48;2.05;;;;;;;11.51;71.50;99668.03;4998784;28;20050;-57
2021/11/01 05:16:48;;;;;;;10.93;1.77;;;;;;;11.38;71.92;99654.22;4998361;28;20034;-56
2021/11/01 05:19:21;;;;;;;10.77;1.83;;;;;;;11.31;71.96;99676.03;5001124;28;20144;-59
2021/11/01 05:21:59;;;;;;;13.82;2.25;;;;;;;11.18;72.65;99672.66;4994219;28;22626;-57
2021/11/01 05:24:31;;;;;;;10.80;2.00;;;;;;;11.21;72.41;99674.38;4992626;28;20136;-56
2021/11/01 05:29:31;;;;;;;11.20;1.88;;;;;;;11.15;72.84;99675.31;4997204;28;20383;-57
2021/11/01 05:32:01;;;;;;;8.02;1.88;;;;;;;11.31;72.29;99681.25;5000622;28;20245;-56
2021/11/01 05:34:26;;;;;;;14.13;2.10;;;;;;;11.31;72.42;99682.13;5002225;28;20053;-54
2021/11/01 05:36:52;;;;;;;10.88;1.80;;;;;;;11.30;71.88;99679.50;4999218;28;20397;-56
2021/11/01 05:39:17;;;;;;;13.88;2.03;;;;;;;11.28;71.68;99671.69;4994528;28;20615;-57
2021/11/01 05:41:43;;;;;;;9.95;1.90;;;;;;;11.23;72.17;99677.81;4992743;28;20761;-57
2021/11/01 05:44:09;;;;;;;8.27;2.15;;;;;;;11.32;71.83;99682.97;5029542;28;20049;-59
2021/11/01 05:46:36;;;;;;;9.52;1.90;;;;;;;11.28;72.23;99689.13;5000190;28;20505;-57
2021/11/01 05:49:04;;;;;;;10.40;2.30;;;;;;;11.35;71.84;99689.03;5001750;28;20034;-56
2021/11/01 05:51:31;;;;;;;10.13;1.90;;;;;;;11.46;71.33;99693.31;4989097;28;20473;-56
2021/11/01 05:54:00;;;;;;;10.25;2.10;;;;;;;11.40;71.14;99687.25;4999373;28;20406;-58
2021/11/01 06:01:44;;;;;;;9.60;2.22;;;;;;;11.32;71.22;99691.69;4988223;28;20069;-56
2021/11/01 06:14:32;;;;;;;10.77;2.10;;;;;;;11.21;71.10;99703.09;4997892;28;20156;-56
2021/11/01 06:16:58;;;;;;;12.32;1.88;;;;;;;11.12;71.54;99708.34;4996767;28;20484;-58
2021/11/01 06:19:24;;;;;;;7.75;1.88;;;;;;;11.15;71.46;99710.97;4995881;28;20052;-56
2021/11/01 06:21:50;;;;;;;10.75;1.80;;;;;;;11.17;70.97;99703.97;4996498;28;20392;-56
2021/11/01 06:26:48;;;;;;;13.88;2.00;;;;;;;11.01;71.79;99711.06;4994929;28;20378;-55
2021/11/01 06:29:17;;;;;;;9.45;1.80;;;;;;;11.04;72.30;99713.63;4994860;28;21109;-56
2021/11/01 06:31:57;;;;;;;11.48;1.95;;;;;;;11.02;71.79;99712.78;4988004;28;20061;-58
2021/11/01 06:34:43;;;;;;;7.50;1.60;;;;;;;11.15;71.32;99718.78;4998027;28;20818;-59
2021/11/01 06:40:25;;;;;;;11.40;1.80;;;;;;;11.19;71.56;99716.13;5002578;28;20048;-55
2021/11/01 06:43:02;;;;;;;9.20;2.05;;;;;;;11.34;71.42;99729.03;5001765;28;20366;-60
2021/11/01 07:15:03;;;;;;;8.23;1.80;;;;;;;11.57;70.24;99734.09;4997744;28;20044;-56
2021/11/01 08:20:55;;;;;;;7.53;1.20;;;;;;;12.58;65.86;99771.34;4996690;28;20052;-58
2021/11/01 08:23:36;;;;;;;6.72;1.50;;;;;;;12.67;65.91;99769.50;4993147;28;20050;-59
2021/11/01 08:26:22;;;;;;;7.40;1.70;;;;;;;12.63;66.87;99776.50;4990395;28;20056;-60
2021/11/01 08:29:15;;;;;;;4.25;1.30;;;;;;;12.68;65.97;99773.88;4995423;28;20045;-59
2021/11/01 08:50:05;;;;;;;8.05;1.52;;;;;;;13.19;66.04;99760.09;4990369;28;20206;-58
2021/11/01 09:19:55;;;;;;;6.95;1.55;;;;;;;13.45;63.15;99780.63;4988687;28;20138;-59
2021/11/01 09:25:02;;;;;;;5.90;1.40;;;;;;;13.42;62.68;99777.22;4993983;28;20064;-58
2021/11/01 09:27:30;;;;;;;4.80;1.40;;;;;;;13.63;62.50;99776.84;5018494;28;20438;-59
2021/11/01 09:43:17;;;;;;;7.23;1.30;;;;;;;13.43;62.99;99789.38;4998067;28;20344;-58
2021/11/01 09:45:43;;;;;;;5.68;1.30;;;;;;;13.38;61.94;99781.59;4986288;28;20346;-59
2021/11/01 09:48:09;;;;;;;2.47;0.90;;;;;;;13.32;62.32;99787.81;4994576;28;20049;-58
2021/11/01 09:50:35;;;;;;;4.38;1.25;;;;;;;13.22;62.34;99793.22;4994743;28;20129;-58
2021/11/01 09:53:06;;;;;;;3.35;0.90;;;;;;;13.41;61.11;99786.81;4990879;28;20107;-55
2021/11/01 10:00:51;;;;;;;8.50;1.40;;;;;;;13.49;61.67;99786.66;4987099;28;20059;-57
2021/11/01 10:03:16;;;;;;;6.60;1.30;;;;;;;13.49;61.29;99791.91;4991660;28;20041;-56
2021/11/01 10:05:54;;;;;;;6.70;1.10;;;;;;;13.36;62.31;99786.00;4990403;28;20494;-56
2021/11/01 10:08:19;;;;;;;3.25;1.10;;;;;;;13.23;62.94;99782.72;4993617;28;20088;-57
2021/11/01 10:10:44;;;;;;;4.53;1.10;;;;;;;13.46;61.18;99803.31;4991339;28;20594;-58
2021/11/01 10:13:14;;;;;;;5.43;1.20;;;;;;;13.33;63.15;99797.41;4989939;28;20068;-56
2021/11/01 10:18:23;;;;;;;5.22;1.25;;;;;;;13.57;61.60;99796.16;4995155;28;20156;-57
2021/11/01 10:20:55;;;;;;;5.68;1.10;;;;;;;13.50;61.67;99791.91;4994219;28;20454;-56
2021/11/01 10:23:24;;;;;;;5.80;1.10;;;;;;;13.54;61.89;99804.03;4993149;28;20604;-57
2021/11/01 10:26:05;;;;;;;6.50;1.10;;;;;;;13.50;61.86;99801.50;4992005;28;20359;-54
2021/11/01 10:28:31;;;;;;;5.95;1.25;;;;;;;13.48;61.39;99791.03;4996340;28;20151;-59
2021/11/01 10:31:24;;;;;;;5.97;1.23;;;;;;;13.45;63.39;99804.19;4985355;28;20042;-59
2021/11/01 10:33:51;;;;;;;5.00;0.90;;;;;;;13.57;61.95;99804.00;4986400;28;20061;-58
2021/11/01 10:36:27;;;;;;;3.20;0.90;;;;;;;13.62;60.41;99793.44;4994548;28;20942;-56
2021/11/01 10:39:06;;;;;;;3.70;1.13;;;;;;;13.65;60.62;99810.00;4993688;28;20143;-58
2021/11/01 10:41:56;;;;;;;6.60;1.20;;;;;;;13.65;60.75;99794.28;4987699;28;20073;-57
2021/11/01 11:14:18;;;;;;;7.20;1.33;;;;;;;14.29;59.78;99814.09;4983229;28;20726;-58
2021/11/01 11:25:19;;;;;;;7.47;1.25;;;;;;;14.27;59.24;99813.28;4936044;28;20812;-57
2021/11/01 11:47:37;;;;;;;4.97;1.10;;;;;;;14.16;59.23;99802.97;4986140;28;20061;-56
2021/11/01 11:50:14;;;;;;;9.65;1.20;;;;;;;14.23;60.55;99816.84;4993831;28;20057;-57
2021/11/01 11:52:40;;;;;;;6.25;1.40;;;;;;;14.31;60.79;99816.72;4991002;28;20082;-57
2021/11/01 11:55:17;;;;;;;6.25;1.48;;;;;;;14.23;60.63;99808.97;4985375;28;20049;-57
2021/11/01 11:57:42;;;;;;;8.07;1.50;;;;;;;14.01;61.36;99810.25;4983170;28;21095;-57
2021/11/01 12:00:12;;;;;;;6.70;1.33;;;;;;;14.31;59.75;99814.09;5007559;28;21263;-58
2021/11/01 12:02:40;;;;;;;5.10;1.50;;;;;;;14.37;59.00;99808.72;4995085;28;20054;-59
2021/11/01 12:05:14;;;;;;;6.10;1.35;;;;;;;14.35;59.44;99815.75;4990013;28;20817;-57
2021/11/01 12:08:21;;;;;;;5.07;1.60;;;;;;;14.49;58.51;99809.41;4989822;28;20037;-58
2021/11/01 12:18:53;;;;;;;5.20;1.30;;;;;;;14.59;57.36;99818.81;4991187;28;20197;-56
2021/11/01 12:21:19;;;;;;;6.38;1.20;;;;;;;14.74;57.73;99824.66;4992450;28;20033;-58
2021/11/01 12:23:45;;;;;;;7.82;1.27;;;;;;;14.79;57.09;99820.16;4983741;28;20049;-60
2021/11/01 12:26:13;;;;;;;6.75;1.42;;;;;;;14.63;57.92;99818.75;4995111;28;20420;-60
2021/11/01 12:28:40;;;;;;;8.30;1.20;;;;;;;14.74;56.80;99817.63;4985375;28;20472;-59
2021/11/01 12:31:09;;;;;;;6.07;1.30;;;;;;;14.85;58.20;99809.53;4993559;28;20042;-59
2021/11/01 12:33:35;;;;;;;5.18;1.23;;;;;;;14.82;58.06;99805.22;4982075;28;20065;-57
2021/11/01 12:36:05;;;;;;;3.90;1.20;;;;;;;14.78;57.43;99803.56;4990161;28;20386;-59
2021/11/01 12:38:52;;;;;;;3.88;1.20;;;;;;;14.74;56.72;99798.41;4998117;28;20041;-57
2021/11/01 12:42:11;;;;;;;4.22;1.13;;;;;;;14.85;56.53;99809.53;4992162;28;20068;-58
2021/11/01 12:58:01;;;;;;;6.90;1.20;;;;;;;14.72;55.54;99815.94;4990112;28;20052;-58
2021/11/01 13:00:34;;;;;;;4.55;1.27;;;;;;;14.61;57.37;99814.41;4983759;28;20396;-59
2021/11/01 13:03:10;;;;;;;4.43;1.27;;;;;;;14.64;57.25;99823.13;4997286;28;20496;-58
2021/11/01 13:05:43;;;;;;;5.50;1.38;;;;;;;14.54;57.76;99822.41;4984008;28;20060;-57
2021/11/01 13:08:11;;;;;;;5.22;1.40;;;;;;;14.47;58.60;99816.41;4993594;28;20081;-56
2021/11/01 13:11:02;;;;;;;7.25;1.70;;;;;;;14.41;58.55;99820.91;4996416;28;20119;-57
2021/11/01 13:18:36;;;;;;;9.95;1.55;;;;;;;14.36;60.18;99815.72;4991581;28;20043;-57
2021/11/01 13:21:08;;;;;;;7.35;1.70;;;;;;;14.53;58.60;99812.81;4987320;28;20054;-58
2021/11/01 13:23:37;;;;;;;7.80;1.90;;;;;;;14.55;58.63;99816.28;4983072;28;20075;-58
2021/11/01 13:29:18;;;;;;;6.40;1.60;;;;;;;14.73;60.06;99812.41;4989261;28;20200;-58
2021/11/01 13:36:44;;;;;;;6.72;1.92;;;;;;;15.26;56.08;99804.25;4992377;28;20063;-59
2021/11/01 13:39:11;;;;;;;5.88;1.73;;;;;;;15.34;56.74;99811.97;4996835;28;20038;-56
2021/11/01 13:41:45;;;;;;;7.20;2.00;;;;;;;15.32;56.75;99809.34;4988981;28;20042;-58
2021/11/01 13:44:11;;;;;;;;;;;;;;;15.42;55.85;99808.28;4997234;28;20054;-57
2021/11/01 13:46:50;;;;;;;6.82;1.70;;;;;;;15.49;56.25;99810.75;4991445;28;20537;-59
2021/11/01 13:49:18;;;;;;;9.02;1.70;;;;;;;15.41;55.87;99803.91;4998578;28;20436;-57
2021/11/01 13:51:46;;;;;;;8.18;1.85;;;;;;;15.16;56.62;99804.50;4988388;28;21097;-60
2021/11/01 13:56:41;;;;;;;6.90;1.65;;;;;;;14.76;57.03;99796.63;4994303;28;20665;-56
2021/11/01 13:59:38;;;;;;;5.78;1.67;;;;;;;14.75;57.99;99794.91;5025420;28;20555;-56
2021/11/01 14:18:17;;;;;;;4.72;1.38;;;;;;;14.14;57.67;99804.78;4991616;28;20041;-58
2021/11/01 14:31:39;;;;;;;3.92;1.20;;;;;;;14.09;58.08;99822.31;4993208;28;20440;-60
2021/11/01 14:34:25;;;;;;;4.50;0.95;;;;;;;13.85;58.63;99809.66;4997735;28;20408;-56
2021/11/01 14:59:11;;;;;;;2.08;0.68;;;;;;;13.76;56.80;99815.06;4995684;28;20136;-58
2021/11/01 15:03:01;;;;;;;1.52;0.50;;;;;;;13.39;57.88;99814.75;4988530;28;20106;-57
2021/11/01 15:05:59;;;;;;;2.75;0.65;;;;;;;13.32;58.12;99820.97;4983453;28;20050;-58
2021/11/01 15:07:49;;;;;;;2.78;0.68;;;;;;;13.30;59.05;99815.75;4996721;28;20036;-59
2021/11/01 15:18:23;;;;;;;1.77;0.70;;;;;;;13.06;60.56;99825.66;4990977;28;20061;-57
2021/11/01 15:21:56;;;;;;;2.53;0.68;;;;;;;13.07;60.46;99830.00;4996157;28;20111;-59
2021/11/01 15:24:13;;;;;;;4.47;0.70;;;;;;;13.11;60.12;99824.75;4978312;28;20499;-58
2021/11/01 15:27:15;;;;;;;3.70;1.10;;;;;;;13.03;61.91;99829.19;4993419;28;20106;-57
2021/11/01 16:18:42;;;;;;;2.03;0.63;;;;;;;12.12;65.08;99849.41;4997048;28;20048;-57
2021/11/01 16:21:08;;;;;;;1.23;0.65;;;;;;;12.00;65.46;99846.03;4992697;28;20049;-58
2021/11/01 16:23:38;;;;;;;2.80;0.75;;;;;;;11.90;64.81;99855.66;4982787;28;20567;-59
2021/11/01 16:26:19;;;;;;;4.72;0.70;;;;;;;11.83;65.00;99854.00;4994465;28;20710;-56
2021/11/01 16:28:45;;;;;;;2.55;0.60;;;;;;;11.72;65.47;99856.66;4992746;28;20052;-54
2021/11/01 16:33:44;;;;;;;2.35;0.70;;;;;;;11.49;66.41;99858.56;4988546;28;20057;-56
2021/11/01 16:36:17;;;;;;;1.85;0.63;;;;;;;11.46;66.61;99857.72;4993099;28;20049;-56
2021/11/01 16:38:50;;;;;;;1.00;0.50;;;;;;;11.35;67.04;99863.00;4995636;28;20080;-57
2021/11/01 16:41:16;;;;;;;4.00;0.70;;;;;;;11.38;66.77;99863.00;4990158;28;20289;-57
2021/11/01 16:43:42;;;;;;;1.85;0.52;;;;;;;11.33;66.55;99868.25;4980276;28;20671;-55
2021/11/01 16:46:07;;;;;;;1.95;0.80;;;;;;;11.19;67.66;99877.88;4992888;28;20414;-57
2021/11/01 16:48:33;;;;;;;1.58;0.70;;;;;;;11.19;67.26;99883.09;4990264;28;20087;-59
2021/11/01 16:50:59;;;;;;;1.80;0.73;;;;;;;11.09;67.38;99872.72;4992471;28;20049;-54
2021/11/01 16:53:26;;;;;;;1.10;0.77;;;;;;;11.06;67.57;99878.81;4988449;28;20115;-56
2021/11/01 16:55:52;;;;;;;2.35;0.85;;;;;;;10.95;68.42;99884.06;4986322;28;20191;-58
2021/11/01 16:58:27;;;;;;;2.72;1.10;;;;;;;10.88;68.50;99876.28;4994325;28;20037;-55
2021/11/01 17:06:11;;;;;;;3.92;1.15;;;;;;;10.84;68.94;99880.66;4987519;28;20285;-57
2021/11/01 17:25:00;;;;;;;3.95;1.30;;;;;;;10.61;70.29;99885.06;4998274;28;20613;-55
2021/11/01 17:27:55;;;;;;;3.55;1.02;;;;;;;10.67;69.92;99890.25;4998896;28;20671;-54
2021/11/01 18:42:31;;;;;;;8.32;4.10;;;;;;;10.24;73.72;99944.19;4989868;28;20778;-54
2021/11/01 18:53:20;;;;;;;8.38;4.00;;;;;;;10.15;74.45;99946.72;4998042;28;20542;-58
2021/11/01 18:55:56;;;;;;;8.70;4.00;;;;;;;10.13;74.26;99956.28;4981863;28;20076;-58
2021/11/01 18:58:26;;;;;;;9.48;4.25;;;;;;;10.08;74.39;99953.66;4990496;28;20588;-56
2021/11/01 19:00:52;;;;;;;7.03;3.97;;;;;;;10.10;74.09;99962.38;4989856;28;20041;-57
2021/11/01 19:03:21;;;;;;;9.20;4.30;;;;;;;10.06;74.26;99964.97;4991218;28;20071;-57
2021/11/01 19:05:54;;;;;;;8.13;4.10;;;;;;;10.08;74.52;99963.22;4984108;28;20293;-57
2021/11/01 20:03:28;;;;;;;10.88;5.60;;;;;;;9.90;74.10;99947.56;4995834;28;19948;-55
2021/11/01 20:06:00;;;;;;;7.68;4.15;;;;;;;9.80;74.10;99949.31;4989947;28;20737;-52
2021/11/01 21:24:31;;;;;;;8.63;3.10;;;;;;;9.73;73.88;99945.81;4983940;28;20590;-54
2021/11/01 21:25:53;;;;;;;6.75;3.60;;;;;;;9.48;73.93;99966.56;4986935;28;20092;-55
2021/11/01 21:28:19;;;;;;;7.18;3.70;;;;;;;9.45;74.46;99964.84;4989713;28;20046;-57
2021/11/01 21:30:45;;;;;;;10.23;3.78;;;;;;;9.42;74.28;99962.22;4990558;28;20053;-57
2021/11/01 21:33:15;;;;;;;6.60;3.60;;;;;;;9.40;74.42;99953.53;4990745;28;20068;-55
2021/11/01 21:35:48;;;;;;;7.07;3.30;;;;;;;9.43;74.49;99960.47;4996268;28;20057;-58
2021/11/01 21:38:14;;;;;;;5.95;3.50;;;;;;;9.42;74.17;99962.22;4994921;28;20115;-56
2021/11/01 21:40:42;;;;;;;6.53;3.60;;;;;;;9.40;74.34;99955.25;5023306;28;20065;-57
2021/11/01 21:43:08;;;;;;;6.32;3.30;;;;;;;9.32;74.13;99961.31;4993171;28;20038;-56
2021/11/01 21:45:33;;;;;;;7.68;3.95;;;;;;;9.30;74.14;99963.03;4990783;28;20129;-57
2021/11/01 21:47:58;;;;;;;9.45;3.80;;;;;;;9.35;74.37;99966.53;4990433;28;20048;-56
2021/11/01 21:50:24;;;;;;;7.30;3.47;;;;;;;9.32;74.30;99966.53;4993627;28;20060;-57
2021/11/01 21:52:50;;;;;;;8.30;3.92;;;;;;;9.25;73.97;99962.16;4997030;28;20076;-58
2021/11/01 21:55:18;;;;;;;8.02;4.10;;;;;;;9.25;74.15;99964.75;4992602;28;20071;-57
2021/11/01 21:57:50;;;;;;;7.55;3.53;;;;;;;9.27;74.19;99969.97;4998860;28;20115;-56
2021/11/01 22:21:24;;;;;;;7.72;4.38;;;;;;;9.27;74.73;99963.00;4995301;28;20041;-56
2021/11/01 22:26:30;;;;;;;7.95;4.70;;;;;;;9.22;74.79;99964.72;5006909;28;20037;-56
2021/11/01 22:34:31;;;;;;;11.85;4.82;;;;;;;9.12;74.78;99960.38;5000987;28;20061;-58
2021/11/01 22:42:21;;;;;;;9.32;5.22;;;;;;;9.07;74.84;99963.81;4991670;28;20563;-59
2021/11/01 22:55:50;;;;;;;12.30;6.80;;;;;;;8.94;75.60;99960.28;4995234;28;20093;-58
2021/11/01 22:58:23;;;;;;;11.98;6.78;;;;;;;8.94;75.31;99955.94;4995239;28;20055;-57
2021/11/01 23:00:55;;;;;;;11.52;6.65;;;;;;;8.93;75.39;99955.94;4993311;28;21205;-55
2021/11/01 23:03:39;;;;;;;11.15;6.72;;;;;;;8.88;75.30;99955.91;5002076;28;20117;-55